sensor_id;sensor_type;location;lat;lon;timestamp;pressure;altitude;pressure_sealevel;temperature;humidity
4586;BME280;2305;50.118;8.952;2023-03-30T00:01:35;100016.84;;;12.98;100.00
4586;BME280;2305;50.118;8.952;2023-03-30T00:04:04;100013.22;;;12.99;100.00
4586;BME280;2305;50.118;8.952;2023-03-30T00:06:33;100007.53;;;12.94;100.00
4586;BME280;2305;50.118;8.952;2023-03-30T00:09:01;100004.34;;;12.90;100.00
4586;BME280;2305;50.118;8.952;2023-03-30T00:11:31;100002.00;;;12.87;100.00
4586;BME280;2305;50.118;8.952;2023-03-30T00:14:00;100004.09;;;12.84;100.00
4586;BME280;2305;50.118;8.952;2023-03-30T00:16:29;100008.84;;;12.80;100.00
4586;BME280;2305;50.118;8.952;2023-03-30T00:18:57;100010.66;;;12.80;100.00
4586;BME280;2305;50.118;8.952;2023-03-30T00:25:28;100007.63;;;12.75;100.00
4586;BME280;2305;50.118;8.952;2023-03-30T00:27:56;100009.41;;;12.74;100.00
4586;BME280;2305;50.118;8.952;2023-03-30T00:30:24;100005.28;;;12.72;100.00
4586;BME280;2305;50.118;8.952;2023-03-30T00:32:53;100002.47;;;12.73;100.00
4586;BME280;2305;50.118;8.952;2023-03-30T00:35:22;99997.34;;;12.72;100.00
4586;BME280;2305;50.118;8.952;2023-03-30T00:37:52;100006.41;;;12.69;100.00
4586;BME280;2305;50.118;8.952;2023-03-30T00:40:21;100008.66;;;12.64;100.00
4586;BME280;2305;50.118;8.952;2023-03-30T00:42:50;100005.03;;;12.65;100.00
4586;BME280;2305;50.118;8.952;2023-03-30T00:45:22;99999.72;;;12.65;100.00
4586;BME280;2305;50.118;8.952;2023-03-30T00:47:56;99997.09;;;12.65;100.00
4586;BME280;2305;50.118;8.952;2023-03-30T00:50:28;99997.09;;;12.65;100.00
4586;BME280;2305;50.118;8.952;2023-03-30T00:53:05;99994.59;;;12.64;100.00
4586;BME280;2305;50.118;8.952;2023-03-30T00:55:38;99987.63;;;12.63;100.00
4586;BME280;2305;50.118;8.952;2023-03-30T00:58:08;99983.88;;;12.65;100.00
4586;BME280;2305;50.118;8.952;2023-03-30T01:00:38;99985.53;;;12.66;100.00
4586;BME280;2305;50.118;8.952;2023-03-30T01:03:10;99974.16;;;12.66;100.00
4586;BME280;2305;50.118;8.952;2023-03-30T01:05:42;99982.88;;;12.66;100.00
4586;BME280;2305;50.118;8.952;2023-03-30T01:08:12;99982.22;;;12.64;100.00
4586;BME280;2305;50.118;8.952;2023-03-30T01:10:43;99987.81;;;12.61;100.00
4586;BME280;2305;50.118;8.952;2023-03-30T01:13:13;99970.69;;;12.56;100.00
4586;BME280;2305;50.118;8.952;2023-03-30T01:15:50;99968.22;;;12.54;100.00
4586;BME280;2305;50.118;8.952;2023-03-30T01:18:28;99969.47;;;12.50;100.00
4586;BME280;2305;50.118;8.952;2023-03-30T01:21:11;99968.09;;;12.46;100.00
4586;BME280;2305;50.118;8.952;2023-03-30T01:24:06;99965.63;;;12.45;100.00
4586;BME280;2305;50.118;8.952;2023-03-30T01:26:47;99973.25;;;12.48;100.00
4586;BME280;2305;50.118;8.952;2023-03-30T01:29:27;99967.81;;;12.49;100.00
4586;BME280;2305;50.118;8.952;2023-03-30T01:32:25;99971.13;;;12.51;100.00
4586;BME280;2305;50.118;8.952;2023-03-30T01:35:32;99977.81;;;12.55;100.00
4586;BME280;2305;50.118;8.952;2023-03-30T01:41:20;99973.19;;;12.57;100.00
4586;BME280;2305;50.118;8.952;2023-03-30T01:43:56;99966.13;;;12.58;100.00
4586;BME280;2305;50.118;8.952;2023-03-30T01:46:31;99968.59;;;12.59;100.00
4586;BME280;2305;50.118;8.952;2023-03-30T01:49:07;99964.03;;;12.61;100.00
4586;BME280;2305;50.118;8.952;2023-03-30T01:51:41;99961.22;;;12.63;100.00
4586;BME280;2305;50.118;8.952;2023-03-30T01:54:15;99967.19;;;12.65;100.00
4586;BME280;2305;50.118;8.952;2023-03-30T01:56:50;99955.47;;;12.67;100.00
4586;BME280;2305;50.118;8.952;2023-03-30T01:59:25;99949.25;;;12.68;100.00
4586;BME280;2305;50.118;8.952;2023-03-30T02:01:58;99946.41;;;12.70;100.00
4586;BME280;2305;50.118;8.952;2023-03-30T02:04:33;99955.06;;;12.72;100.00
4586;BME280;2305;50.118;8.952;2023-03-30T02:07:07;99951.25;;;12.74;100.00
4586;BME280;2305;50.118;8.952;2023-03-30T02:09:39;99949.31;;;12.76;100.00
4586;BME280;2305;50.118;8.952;2023-03-30T02:12:10;99953.50;;;12.79;100.00
4586;BME280;2305;50.118;8.952;2023-03-30T02:14:42;99970.16;;;12.79;100.00
4586;BME280;2305;50.118;8.952;2023-03-30T02:17:14;99963.09;;;12.80;100.00
4586;BME280;2305;50.118;8.952;2023-03-30T02:19:44;99979.94;;;12.79;100.00
4586;BME280;2305;50.118;8.952;2023-03-30T02:22:15;99988.97;;;12.76;100.00
4586;BME280;2305;50.118;8.952;2023-03-30T02:24:47;99992.63;;;12.75;100.00
4586;BME280;2305;50.118;8.952;2023-03-30T02:27:20;99991.75;;;12.75;100.00
4586;BME280;2305;50.118;8.952;2023-03-30T02:29:51;99975.75;;;12.76;100.00
4586;BME280;2305;50.118;8.952;2023-03-30T02:32:24;99971.75;;;12.72;100.00
4586;BME280;2305;50.118;8.952;2023-03-30T02:35:07;99975.38;;;12.71;100.00
4586;BME280;2305;50.118;8.952;2023-03-30T02:38:09;99993.19;;;12.69;100.00
4586;BME280;2305;50.118;8.952;2023-03-30T02:40:50;99991.94;;;12.64;100.00
4586;BME280;2305;50.118;8.952;2023-03-30T02:43:28;99994.59;;;12.64;100.00
4586;BME280;2305;50.118;8.952;2023-03-30T02:46:14;99991.00;;;12.65;100.00
4586;BME280;2305;50.118;8.952;2023-03-30T02:48:55;99979.13;;;12.69;100.00
4586;BME280;2305;50.118;8.952;2023-03-30T02:51:38;99980.66;;;12.71;100.00
4586;BME280;2305;50.118;8.952;2023-03-30T02:54:27;99975.91;;;12.75;100.00
4586;BME280;2305;50.118;8.952;2023-03-30T02:57:34;99973.78;;;12.78;100.00
4586;BME280;2305;50.118;8.952;2023-03-30T03:00:46;99960.44;;;12.80;100.00
4586;BME280;2305;50.118;8.952;2023-03-30T03:03:25;99955.81;;;12.82;100.00
4586;BME280;2305;50.118;8.952;2023-03-30T03:05:56;99945.13;;;12.83;100.00
4586;BME280;2305;50.118;8.952;2023-03-30T03:08:33;99944.94;;;12.85;100.00
4586;BME280;2305;50.118;8.952;2023-03-30T03:11:03;99964.28;;;12.85;100.00
4586;BME280;2305;50.118;8.952;2023-03-30T03:13:34;99981.16;;;12.84;100.00
4586;BME280;2305;50.118;8.952;2023-03-30T03:16:05;100003.09;;;12.85;100.00
4586;BME280;2305;50.118;8.952;2023-03-30T03:18:37;100017.19;;;12.85;100.00
4586;BME280;2305;50.118;8.952;2023-03-30T03:21:12;100013.56;;;12.86;100.00
4586;BME280;2305;50.118;8.952;2023-03-30T03:23:41;100012.56;;;12.87;100.00
4586;BME280;2305;50.118;8.952;2023-03-30T03:26:10;100017.84;;;12.87;100.00
4586;BME280;2305;50.118;8.952;2023-03-30T03:28:39;99994.38;;;12.84;100.00
4586;BME280;2305;50.118;8.952;2023-03-30T03:31:10;99991.84;;;12.83;100.00
4586;BME280;2305;50.118;8.952;2023-03-30T03:33:43;99998.44;;;12.79;100.00
4586;BME280;2305;50.118;8.952;2023-03-30T03:36:17;100007.19;;;12.79;100.00
4586;BME280;2305;50.118;8.952;2023-03-30T03:38:50;99992.00;;;12.81;100.00
4586;BME280;2305;50.118;8.952;2023-03-30T03:41:19;100002.66;;;12.89;100.00
4586;BME280;2305;50.118;8.952;2023-03-30T03:43:48;100006.47;;;12.87;100.00
4586;BME280;2305;50.118;8.952;2023-03-30T03:46:19;100002.00;;;12.87;100.00
4586;BME280;2305;50.118;8.952;2023-03-30T03:48:48;99992.38;;;12.96;100.00
4586;BME280;2305;50.118;8.952;2023-03-30T03:51:19;99996.53;;;12.98;100.00
4586;BME280;2305;50.118;8.952;2023-03-30T03:53:47;99988.63;;;12.98;100.00
4586;BME280;2305;50.118;8.952;2023-03-30T03:56:16;99972.56;;;13.00;100.00
4586;BME280;2305;50.118;8.952;2023-03-30T03:58:45;99966.47;;;12.99;100.00
4586;BME280;2305;50.118;8.952;2023-03-30T04:01:19;99954.50;;;12.95;100.00
4586;BME280;2305;50.118;8.952;2023-03-30T04:03:47;99926.25;;;12.96;100.00
4586;BME280;2305;50.118;8.952;2023-03-30T04:06:15;99900.81;;;12.95;100.00
4586;BME280;2305;50.118;8.952;2023-03-30T04:08:44;99881.31;;;12.96;100.00
4586;BME280;2305;50.118;8.952;2023-03-30T04:11:32;99855.28;;;12.91;100.00
4586;BME280;2305;50.118;8.952;2023-03-30T04:14:36;99840.50;;;12.98;100.00
4586;BME280;2305;50.118;8.952;2023-03-30T04:17:29;99823.19;;;13.04;100.00
4586;BME280;2305;50.118;8.952;2023-03-30T04:20:15;99841.38;;;13.07;100.00
4586;BME280;2305;50.118;8.952;2023-03-30T04:23:10;99825.75;;;13.13;100.00
4586;BME280;2305;50.118;8.952;2023-03-30T04:26:26;99824.84;;;13.22;100.00
4586;BME280;2305;50.118;8.952;2023-03-30T04:29:17;99829.84;;;13.25;100.00
4586;BME280;2305;50.118;8.952;2023-03-30T04:32:05;99818.09;;;13.28;100.00
4586;BME280;2305;50.118;8.952;2023-03-30T04:35:10;99825.06;;;13.29;100.00
4586;BME280;2305;50.118;8.952;2023-03-30T04:38:00;99810.84;;;13.30;100.00
4586;BME280;2305;50.118;8.952;2023-03-30T04:40:53;99812.66;;;13.29;100.00
4586;BME280;2305;50.118;8.952;2023-03-30T04:43:31;99806.53;;;13.29;100.00
4586;BME280;2305;50.118;8.952;2023-03-30T04:46:02;99812.66;;;13.29;100.00
4586;BME280;2305;50.118;8.952;2023-03-30T04:49:01;99795.13;;;13.28;100.00
4586;BME280;2305;50.118;8.952;2023-03-30T04:51:54;99797.63;;;13.30;100.00
4586;BME280;2305;50.118;8.952;2023-03-30T04:54:54;99789.69;;;13.30;100.00
4586;BME280;2305;50.118;8.952;2023-03-30T04:57:48;99811.66;;;13.30;100.00
4586;BME280;2305;50.118;8.952;2023-03-30T05:00:54;99819.59;;;13.30;100.00
4586;BME280;2305;50.118;8.952;2023-03-30T05:04:02;99832.00;;;13.30;100.00
4586;BME280;2305;50.118;8.952;2023-03-30T05:07:10;99835.78;;;13.27;100.00
4586;BME280;2305;50.118;8.952;2023-03-30T05:09:59;99840.56;;;13.24;100.00
4586;BME280;2305;50.118;8.952;2023-03-30T05:12:46;99845.00;;;13.23;100.00
4586;BME280;2305;50.118;8.952;2023-03-30T05:15:36;99853.25;;;13.20;100.00
4586;BME280;2305;50.118;8.952;2023-03-30T05:18:43;99883.97;;;13.13;100.00
4586;BME280;2305;50.118;8.952;2023-03-30T05:21:39;99894.53;;;13.13;100.00
4586;BME280;2305;50.118;8.952;2023-03-30T05:24:22;99872.25;;;13.16;100.00
4586;BME280;2305;50.118;8.952;2023-03-30T05:27:14;99875.88;;;13.15;100.00
4586;BME280;2305;50.118;8.952;2023-03-30T05:29:53;99888.94;;;13.16;100.00
4586;BME280;2305;50.118;8.952;2023-03-30T05:32:49;99873.66;;;13.10;100.00
4586;BME280;2305;50.118;8.952;2023-03-30T05:35:44;99876.84;;;13.14;100.00
4586;BME280;2305;50.118;8.952;2023-03-30T05:38:31;99878.81;;;13.12;100.00
4586;BME280;2305;50.118;8.952;2023-03-30T05:41:25;99873.97;;;13.07;100.00
4586;BME280;2305;50.118;8.952;2023-03-30T05:44:19;99845.88;;;13.06;100.00
4586;BME280;2305;50.118;8.952;2023-03-30T05:47:11;99851.75;;;13.00;100.00
4586;BME280;2305;50.118;8.952;2023-03-30T05:50:02;99850.66;;;12.93;100.00
4586;BME280;2305;50.118;8.952;2023-03-30T05:52:37;99862.81;;;12.96;100.00
4586;BME280;2305;50.118;8.952;2023-03-30T05:55:21;99870.59;;;12.97;100.00
4586;BME280;2305;50.118;8.952;2023-03-30T05:58:09;99869.50;;;12.90;100.00
4586;BME280;2305;50.118;8.952;2023-03-30T06:00:51;99893.28;;;12.90;100.00
4586;BME280;2305;50.118;8.952;2023-03-30T06:03:30;99895.09;;;12.90;100.00
4586;BME280;2305;50.118;8.952;2023-03-30T06:05:59;99906.66;;;12.89;100.00
4586;BME280;2305;50.118;8.952;2023-03-30T06:08:29;99932.13;;;12.90;100.00
4586;BME280;2305;50.118;8.952;2023-03-30T06:11:02;99941.47;;;12.84;100.00
4586;BME280;2305;50.118;8.952;2023-03-30T06:13:43;99929.47;;;12.90;100.00
4586;BME280;2305;50.118;8.952;2023-03-30T06:16:11;99924.97;;;13.00;100.00
4586;BME280;2305;50.118;8.952;2023-03-30T06:18:40;99929.97;;;13.03;100.00
4586;BME280;2305;50.118;8.952;2023-03-30T06:21:11;99926.47;;;13.02;100.00
4586;BME280;2305;50.118;8.952;2023-03-30T06:23:58;99913.78;;;13.06;100.00
4586;BME280;2305;50.118;8.952;2023-03-30T06:26:28;99906.09;;;13.12;100.00
4586;BME280;2305;50.118;8.952;2023-03-30T06:28:59;99896.50;;;13.11;100.00
4586;BME280;2305;50.118;8.952;2023-03-30T06:31:28;99924.63;;;13.12;100.00
4586;BME280;2305;50.118;8.952;2023-03-30T06:34:22;99941.16;;;13.14;100.00
4586;BME280;2305;50.118;8.952;2023-03-30T06:36:50;99947.13;;;13.16;100.00
4586;BME280;2305;50.118;8.952;2023-03-30T06:39:22;99953.41;;;13.15;100.00
4586;BME280;2305;50.118;8.952;2023-03-30T06:41:52;99957.56;;;13.18;100.00
4586;BME280;2305;50.118;8.952;2023-03-30T06:44:51;99964.00;;;13.15;100.00
4586;BME280;2305;50.118;8.952;2023-03-30T06:47:19;99969.13;;;13.17;100.00
4586;BME280;2305;50.118;8.952;2023-03-30T06:49:50;99961.66;;;13.12;100.00
4586;BME280;2305;50.118;8.952;2023-03-30T06:52:44;99943.94;;;13.13;100.00
4586;BME280;2305;50.118;8.952;2023-03-30T06:55:13;99940.19;;;13.15;100.00
4586;BME280;2305;50.118;8.952;2023-03-30T06:57:41;99937.69;;;13.14;100.00
4586;BME280;2305;50.118;8.952;2023-03-30T07:00:11;99952.88;;;13.12;100.00
4586;BME280;2305;50.118;8.952;2023-03-30T07:02:41;99918.41;;;13.21;100.00
4586;BME280;2305;50.118;8.952;2023-03-30T07:05:20;99926.34;;;13.21;100.00
4586;BME280;2305;50.118;8.952;2023-03-30T07:08:10;99962.00;;;13.17;100.00
4586;BME280;2305;50.118;8.952;2023-03-30T07:10:47;99960.44;;;13.24;100.00
4586;BME280;2305;50.118;8.952;2023-03-30T07:13:15;99912.66;;;13.26;100.00
4586;BME280;2305;50.118;8.952;2023-03-30T07:15:48;99936.19;;;13.29;100.00
4586;BME280;2305;50.118;8.952;2023-03-30T07:18:18;99936.03;;;13.30;100.00
4586;BME280;2305;50.118;8.952;2023-03-30T07:20:46;99920.47;;;13.27;100.00
4586;BME280;2305;50.118;8.952;2023-03-30T07:23:19;99919.69;;;13.35;100.00
4586;BME280;2305;50.118;8.952;2023-03-30T07:25:49;99938.59;;;13.40;100.00
4586;BME280;2305;50.118;8.952;2023-03-30T07:28:28;99939.19;;;13.51;100.00
4586;BME280;2305;50.118;8.952;2023-03-30T07:31:03;99937.22;;;13.53;100.00
4586;BME280;2305;50.118;8.952;2023-03-30T07:33:36;99937.59;;;13.58;100.00
4586;BME280;2305;50.118;8.952;2023-03-30T07:36:07;99934.84;;;13.68;100.00
4586;BME280;2305;50.118;8.952;2023-03-30T07:38:36;99932.81;;;13.62;100.00
4586;BME280;2305;50.118;8.952;2023-03-30T07:41:07;99941.66;;;13.70;100.00
4586;BME280;2305;50.118;8.952;2023-03-30T07:43:36;99921.00;;;13.73;100.00
4586;BME280;2305;50.118;8.952;2023-03-30T07:46:10;99897.28;;;13.64;100.00
4586;BME280;2305;50.118;8.952;2023-03-30T07:48:43;99933.72;;;13.70;100.00
4586;BME280;2305;50.118;8.952;2023-03-30T07:51:12;99936.03;;;13.73;100.00
4586;BME280;2305;50.118;8.952;2023-03-30T07:54:03;99948.63;;;13.71;100.00
4586;BME280;2305;50.118;8.952;2023-03-30T07:56:44;99947.63;;;13.72;100.00
4586;BME280;2305;50.118;8.952;2023-03-30T07:59:19;99946.34;;;13.76;100.00
4586;BME280;2305;50.118;8.952;2023-03-30T08:01:50;99956.94;;;13.76;100.00
4586;BME280;2305;50.118;8.952;2023-03-30T08:04:40;99944.75;;;13.83;100.00
4586;BME280;2305;50.118;8.952;2023-03-30T08:07:10;99929.09;;;13.97;100.00
4586;BME280;2305;50.118;8.952;2023-03-30T08:09:38;99920.72;;;14.10;100.00
4586;BME280;2305;50.118;8.952;2023-03-30T08:12:08;99929.66;;;14.09;100.00
4586;BME280;2305;50.118;8.952;2023-03-30T08:14:38;99929.53;;;14.10;100.00
4586;BME280;2305;50.118;8.952;2023-03-30T08:17:07;99938.56;;;14.00;100.00
4586;BME280;2305;50.118;8.952;2023-03-30T08:19:35;99941.53;;;13.97;100.00
4586;BME280;2305;50.118;8.952;2023-03-30T08:22:03;99953.34;;;13.85;100.00
4586;BME280;2305;50.118;8.952;2023-03-30T08:24:31;99954.72;;;13.89;100.00
4586;BME280;2305;50.118;8.952;2023-03-30T08:26:59;99972.28;;;13.90;100.00
4586;BME280;2305;50.118;8.952;2023-03-30T08:29:27;99976.78;;;13.97;100.00
4586;BME280;2305;50.118;8.952;2023-03-30T08:31:57;99963.25;;;14.00;100.00
4586;BME280;2305;50.118;8.952;2023-03-30T08:34:27;99962.03;;;13.95;100.00
4586;BME280;2305;50.118;8.952;2023-03-30T08:36:56;99961.41;;;14.01;100.00
4586;BME280;2305;50.118;8.952;2023-03-30T08:39:25;99948.22;;;14.09;100.00
4586;BME280;2305;50.118;8.952;2023-03-30T08:42:17;99955.00;;;14.29;100.00
4586;BME280;2305;50.118;8.952;2023-03-30T08:44:50;99954.25;;;14.44;100.00
4586;BME280;2305;50.118;8.952;2023-03-30T08:47:28;99958.31;;;14.56;100.00
4586;BME280;2305;50.118;8.952;2023-03-30T08:50:05;99971.75;;;14.63;100.00
4586;BME280;2305;50.118;8.952;2023-03-30T08:52:35;99952.69;;;14.67;100.00
4586;BME280;2305;50.118;8.952;2023-03-30T08:55:05;99953.19;;;14.71;100.00
4586;BME280;2305;50.118;8.952;2023-03-30T08:57:42;99942.59;;;14.71;100.00
4586;BME280;2305;50.118;8.952;2023-03-30T09:00:22;99935.69;;;14.86;100.00
4586;BME280;2305;50.118;8.952;2023-03-30T09:03:00;99927.59;;;15.03;100.00
4586;BME280;2305;50.118;8.952;2023-03-30T09:05:38;99933.44;;;15.23;100.00
4586;BME280;2305;50.118;8.952;2023-03-30T09:08:15;99949.09;;;15.34;100.00
4586;BME280;2305;50.118;8.952;2023-03-30T09:10:51;99974.47;;;15.36;100.00
4586;BME280;2305;50.118;8.952;2023-03-30T09:13:23;99963.34;;;15.33;100.00
4586;BME280;2305;50.118;8.952;2023-03-30T09:15:56;99952.41;;;15.44;100.00
4586;BME280;2305;50.118;8.952;2023-03-30T09:18:30;99955.06;;;15.44;100.00
4586;BME280;2305;50.118;8.952;2023-03-30T09:21:03;99954.75;;;15.47;100.00
4586;BME280;2305;50.118;8.952;2023-03-30T09:23:33;99957.06;;;15.58;100.00
4586;BME280;2305;50.118;8.952;2023-03-30T09:26:11;99955.25;;;15.66;100.00
4586;BME280;2305;50.118;8.952;2023-03-30T09:28:48;99948.78;;;15.77;100.00
4586;BME280;2305;50.118;8.952;2023-03-30T09:31:27;99952.09;;;15.71;100.00
4586;BME280;2305;50.118;8.952;2023-03-30T09:34:02;99947.44;;;15.89;100.00
4586;BME280;2305;50.118;8.952;2023-03-30T09:36:38;99927.66;;;15.99;100.00
4586;BME280;2305;50.118;8.952;2023-03-30T09:39:14;99945.09;;;15.86;100.00
4586;BME280;2305;50.118;8.952;2023-03-30T09:41:55;99943.56;;;16.15;100.00
4586;BME280;2305;50.118;8.952;2023-03-30T09:44:33;99930.31;;;15.99;100.00
4586;BME280;2305;50.118;8.952;2023-03-30T09:47:15;99934.66;;;15.92;100.00
4586;BME280;2305;50.118;8.952;2023-03-30T09:49:47;99934.47;;;15.86;100.00
4586;BME280;2305;50.118;8.952;2023-03-30T09:52:27;99935.63;;;15.83;100.00
4586;BME280;2305;50.118;8.952;2023-03-30T09:55:16;99932.97;;;15.99;100.00
4586;BME280;2305;50.118;8.952;2023-03-30T09:57:48;99936.63;;;15.98;100.00
4586;BME280;2305;50.118;8.952;2023-03-30T10:00:25;99921.19;;;15.86;100.00
4586;BME280;2305;50.118;8.952;2023-03-30T10:02:57;99919.22;;;15.88;100.00
4586;BME280;2305;50.118;8.952;2023-03-30T10:05:29;99915.38;;;15.82;100.00
4586;BME280;2305;50.118;8.952;2023-03-30T10:08:02;99922.19;;;15.85;100.00
4586;BME280;2305;50.118;8.952;2023-03-30T10:10:33;99915.22;;;15.84;100.00
4586;BME280;2305;50.118;8.952;2023-03-30T10:13:07;99907.91;;;15.86;100.00
4586;BME280;2305;50.118;8.952;2023-03-30T10:15:41;99903.94;;;15.90;100.00
4586;BME280;2305;50.118;8.952;2023-03-30T10:18:21;99925.16;;;15.98;100.00
4586;BME280;2305;50.118;8.952;2023-03-30T10:20:52;99908.81;;;16.25;100.00
4586;BME280;2305;50.118;8.952;2023-03-30T10:23:29;99908.97;;;16.31;100.00
4586;BME280;2305;50.118;8.952;2023-03-30T10:26:00;99922.56;;;16.44;100.00
4586;BME280;2305;50.118;8.952;2023-03-30T10:28:31;99918.94;;;16.37;100.00
4586;BME280;2305;50.118;8.952;2023-03-30T10:31:03;99928.94;;;16.27;100.00
4586;BME280;2305;50.118;8.952;2023-03-30T10:33:38;99913.09;;;16.34;100.00
4586;BME280;2305;50.118;8.952;2023-03-30T10:36:08;99925.94;;;16.22;100.00
4586;BME280;2305;50.118;8.952;2023-03-30T10:38:39;99911.13;;;16.28;100.00
4586;BME280;2305;50.118;8.952;2023-03-30T10:41:11;99913.75;;;16.44;100.00
4586;BME280;2305;50.118;8.952;2023-03-30T10:43:43;99902.75;;;16.55;100.00
4586;BME280;2305;50.118;8.952;2023-03-30T10:46:14;99904.94;;;16.51;100.00
4586;BME280;2305;50.118;8.952;2023-03-30T10:48:59;99912.75;;;16.37;100.00
4586;BME280;2305;50.118;8.952;2023-03-30T10:51:38;99918.38;;;16.50;100.00
4586;BME280;2305;50.118;8.952;2023-03-30T10:54:15;99899.88;;;16.64;100.00
4586;BME280;2305;50.118;8.952;2023-03-30T10:56:47;99897.56;;;16.92;100.00
4586;BME280;2305;50.118;8.952;2023-03-30T10:59:41;99894.38;;;16.96;100.00
4586;BME280;2305;50.118;8.952;2023-03-30T11:02:23;99892.97;;;17.31;100.00
4586;BME280;2305;50.118;8.952;2023-03-30T11:04:58;99905.69;;;17.21;100.00
4586;BME280;2305;50.118;8.952;2023-03-30T11:07:30;99892.53;;;16.97;100.00
4586;BME280;2305;50.118;8.952;2023-03-30T11:10:08;99893.19;;;16.99;100.00
4586;BME280;2305;50.118;8.952;2023-03-30T11:12:43;99883.16;;;17.09;100.00
4586;BME280;2305;50.118;8.952;2023-03-30T11:15:16;99884.63;;;17.11;100.00
4586;BME280;2305;50.118;8.952;2023-03-30T11:17:53;99893.34;;;17.05;100.00
4586;BME280;2305;50.118;8.952;2023-03-30T11:20:25;99868.69;;;17.03;100.00
4586;BME280;2305;50.118;8.952;2023-03-30T11:23:01;99885.16;;;16.84;100.00
4586;BME280;2305;50.118;8.952;2023-03-30T11:25:39;99877.44;;;16.89;100.00
4586;BME280;2305;50.118;8.952;2023-03-30T11:28:17;99893.91;;;17.15;100.00
4586;BME280;2305;50.118;8.952;2023-03-30T11:30:53;99894.59;;;17.40;100.00
4586;BME280;2305;50.118;8.952;2023-03-30T11:33:30;99900.22;;;17.45;100.00
4586;BME280;2305;50.118;8.952;2023-03-30T11:36:04;99875.94;;;17.62;100.00
4586;BME280;2305;50.118;8.952;2023-03-30T11:38:41;99878.09;;;17.36;100.00
4586;BME280;2305;50.118;8.952;2023-03-30T11:41:16;99890.13;;;17.55;100.00
4586;BME280;2305;50.118;8.952;2023-03-30T11:43:50;99859.56;;;17.65;100.00
4586;BME280;2305;50.118;8.952;2023-03-30T11:46:26;99869.38;;;17.65;100.00
4586;BME280;2305;50.118;8.952;2023-03-30T11:49:05;99881.97;;;17.56;100.00
4586;BME280;2305;50.118;8.952;2023-03-30T11:51:46;99847.53;;;17.69;100.00
4586;BME280;2305;50.118;8.952;2023-03-30T11:54:37;99864.81;;;17.73;100.00
4586;BME280;2305;50.118;8.952;2023-03-30T11:57:36;99875.50;;;17.88;100.00
4586;BME280;2305;50.118;8.952;2023-03-30T12:00:25;99863.94;;;18.10;100.00
4586;BME280;2305;50.118;8.952;2023-03-30T12:03:07;99873.59;;;18.40;100.00
4586;BME280;2305;50.118;8.952;2023-03-30T12:05:43;99882.44;;;18.40;100.00
4586;BME280;2305;50.118;8.952;2023-03-30T12:08:23;99867.63;;;18.09;100.00
4586;BME280;2305;50.118;8.952;2023-03-30T12:11:05;99888.28;;;18.07;100.00
4586;BME280;2305;50.118;8.952;2023-03-30T12:13:41;99868.59;;;18.08;100.00
4586;BME280;2305;50.118;8.952;2023-03-30T12:16:21;99865.31;;;18.35;100.00
4586;BME280;2305;50.118;8.952;2023-03-30T12:19:02;99893.47;;;18.52;100.00
4586;BME280;2305;50.118;8.952;2023-03-30T12:21:37;99865.84;;;18.59;100.00
4586;BME280;2305;50.118;8.952;2023-03-30T12:24:14;99871.63;;;18.77;100.00
4586;BME280;2305;50.118;8.952;2023-03-30T12:26:44;99859.06;;;18.77;100.00
4586;BME280;2305;50.118;8.952;2023-03-30T12:29:47;99869.28;;;18.88;100.00
4586;BME280;2305;50.118;8.952;2023-03-30T12:32:21;99865.59;;;18.75;100.00
4586;BME280;2305;50.118;8.952;2023-03-30T12:34:55;99864.53;;;18.70;100.00
4586;BME280;2305;50.118;8.952;2023-03-30T12:37:27;99877.72;;;18.57;100.00
4586;BME280;2305;50.118;8.952;2023-03-30T12:40:00;99844.88;;;18.27;100.00
4586;BME280;2305;50.118;8.952;2023-03-30T12:42:38;99839.66;;;18.19;100.00
4586;BME280;2305;50.118;8.952;2023-03-30T12:45:26;99814.91;;;18.11;100.00
4586;BME280;2305;50.118;8.952;2023-03-30T12:48:22;99825.19;;;18.14;100.00
4586;BME280;2305;50.118;8.952;2023-03-30T12:51:06;99856.66;;;18.18;100.00
4586;BME280;2305;50.118;8.952;2023-03-30T12:53:58;99830.38;;;18.15;100.00
4586;BME280;2305;50.118;8.952;2023-03-30T12:56:36;99828.44;;;18.09;100.00
4586;BME280;2305;50.118;8.952;2023-03-30T12:59:24;99826.03;;;18.14;100.00
4586;BME280;2305;50.118;8.952;2023-03-30T13:02:14;99820.72;;;18.14;100.00
4586;BME280;2305;50.118;8.952;2023-03-30T13:04:46;99832.50;;;18.34;100.00
4586;BME280;2305;50.118;8.952;2023-03-30T13:07:20;99835.28;;;18.62;100.00
4586;BME280;2305;50.118;8.952;2023-03-30T13:09:51;99821.09;;;18.61;100.00
4586;BME280;2305;50.118;8.952;2023-03-30T13:12:30;99832.13;;;18.37;100.00
4586;BME280;2305;50.118;8.952;2023-03-30T13:15:01;99834.22;;;18.27;100.00
4586;BME280;2305;50.118;8.952;2023-03-30T13:17:55;99888.13;;;18.23;100.00
4586;BME280;2305;50.118;8.952;2023-03-30T13:20:35;99935.50;;;17.47;100.00
4586;BME280;2305;50.118;8.952;2023-03-30T13:23:23;99916.25;;;16.84;100.00
4586;BME280;2305;50.118;8.952;2023-03-30T13:26:03;99967.31;;;16.25;100.00
4586;BME280;2305;50.118;8.952;2023-03-30T13:28:44;99951.09;;;15.96;100.00
4586;BME280;2305;50.118;8.952;2023-03-30T13:31:26;99933.78;;;16.00;100.00
4586;BME280;2305;50.118;8.952;2023-03-30T13:34:06;99934.56;;;16.24;100.00
4586;BME280;2305;50.118;8.952;2023-03-30T13:36:45;99921.06;;;16.50;100.00
4586;BME280;2305;50.118;8.952;2023-03-30T13:39:21;99916.03;;;16.93;100.00
4586;BME280;2305;50.118;8.952;2023-03-30T13:42:01;99907.00;;;17.25;100.00
4586;BME280;2305;50.118;8.952;2023-03-30T13:44:43;99911.28;;;17.56;100.00
4586;BME280;2305;50.118;8.952;2023-03-30T13:47:28;99929.09;;;17.56;100.00
4586;BME280;2305;50.118;8.952;2023-03-30T13:50:06;99940.66;;;17.18;100.00
4586;BME280;2305;50.118;8.952;2023-03-30T13:52:43;99940.28;;;16.68;100.00
4586;BME280;2305;50.118;8.952;2023-03-30T13:55:16;99923.75;;;16.42;100.00
4586;BME280;2305;50.118;8.952;2023-03-30T13:57:53;99919.63;;;16.23;100.00
4586;BME280;2305;50.118;8.952;2023-03-30T14:00:30;99931.94;;;16.08;100.00
4586;BME280;2305;50.118;8.952;2023-03-30T14:03:25;99950.75;;;15.91;100.00
4586;BME280;2305;50.118;8.952;2023-03-30T14:06:02;99963.22;;;15.74;100.00
4586;BME280;2305;50.118;8.952;2023-03-30T14:08:34;99972.19;;;15.49;100.00
4586;BME280;2305;50.118;8.952;2023-03-30T14:11:07;99967.19;;;15.46;100.00
4586;BME280;2305;50.118;8.952;2023-03-30T14:13:38;99972.66;;;15.45;100.00